Time;durP1;ratioP1;P1;durP2;ratioP2;P2;SDS_P1;SDS_P2;PMS_P1;PMS_P2;Temp;Humidity;BMP_temperature;BMP_pressure;BME280_temperature;BME280_humidity;BME280_pressure;Samples;Min_cycle;Max_cycle;Signal;HPM_P1;HPM_P2
2023/01/19 00:00:35;;;;;;;7.90;6.22;;;-0.30;99.90;;;;;;5086869;28;20040;-39
2023/01/19 00:03:03;;;;;;;6.70;5.45;;;-0.20;99.90;;;;;;5093349;28;20034;-39
2023/01/19 00:05:28;;;;;;;9.30;6.80;;;-0.20;99.90;;;;;;5085749;28;20497;-39
2023/01/19 00:07:54;;;;;;;3.10;2.28;;;-0.20;99.90;;;;;;5089883;28;20055;-38
2023/01/19 00:10:19;;;;;;;6.55;5.00;;;-0.20;99.90;;;;;;5093257;28;20059;-39
2023/01/19 00:12:45;;;;;;;7.63;5.47;;;-0.20;99.90;;;;;;5088062;28;20044;-34
2023/01/19 00:15:11;;;;;;;4.45;3.75;;;-0.20;99.90;;;;;;5084947;28;20081;-38
2023/01/19 00:17:39;;;;;;;3.28;3.03;;;-0.30;99.90;;;;;;5086459;28;20047;-39
2023/01/19 00:20:06;;;;;;;4.70;3.63;;;-0.40;99.90;;;;;;5089752;28;20165;-39
2023/01/19 00:22:32;;;;;;;5.97;5.18;;;-0.50;99.90;;;;;;5086662;28;20032;-39
2023/01/19 00:24:57;;;;;;;5.43;3.80;;;-0.50;99.90;;;;;;5084168;28;20035;-39
2023/01/19 00:27:23;;;;;;;7.47;4.72;;;-0.50;99.90;;;;;;5092893;28;20111;-39
2023/01/19 00:29:49;;;;;;;4.10;3.75;;;-0.50;99.90;;;;;;5098950;28;20108;-39
2023/01/19 00:32:16;;;;;;;6.50;2.42;;;-0.50;99.90;;;;;;5088528;28;20093;-36
2023/01/19 00:34:48;;;;;;;6.25;5.15;;;-0.60;99.90;;;;;;5075896;28;20106;-40
2023/01/19 00:37:14;;;;;;;7.63;4.80;;;-0.60;99.90;;;;;;5088640;28;20032;-37
2023/01/19 00:39:40;;;;;;;8.07;5.88;;;-0.40;99.90;;;;;;5092996;28;20032;-39
2023/01/19 00:44:49;;;;;;;7.25;4.65;;;-0.40;99.90;;;;;;5086232;28;20039;-39
2023/01/19 00:47:15;;;;;;;7.22;5.70;;;-0.40;99.90;;;;;;5066409;28;20028;-37
2023/01/19 00:49:41;;;;;;;7.47;5.15;;;-0.40;99.90;;;;;;5092343;28;20016;-37
2023/01/19 00:52:06;;;;;;;7.97;5.57;;;-0.40;99.90;;;;;;5084646;28;20027;-39
2023/01/19 00:54:32;;;;;;;9.32;6.47;;;-0.40;99.90;;;;;;5088876;28;20028;-39
2023/01/19 00:56:57;;;;;;;6.32;4.65;;;-0.30;99.90;;;;;;5087848;28;20067;-37
2023/01/19 00:59:24;;;;;;;9.13;5.45;;;-0.30;99.90;;;;;;5091560;28;20050;-38
2023/01/19 01:01:50;;;;;;;12.05;6.07;;;-0.30;99.90;;;;;;5085826;28;20036;-37
2023/01/19 01:04:15;;;;;;;8.77;5.95;;;-0.30;99.90;;;;;;5089703;28;20106;-39
2023/01/19 01:06:41;;;;;;;8.13;6.57;;;-0.40;99.90;;;;;;5086290;28;20020;-39
2023/01/19 01:09:10;;;;;;;9.80;5.53;;;-0.40;99.90;;;;;;5069996;28;20109;-39
2023/01/19 01:11:41;;;;;;;6.70;4.88;;;-0.40;99.90;;;;;;5063746;28;20047;-39
2023/01/19 01:14:09;;;;;;;7.93;5.55;;;-0.40;99.90;;;;;;5072264;28;20025;-38
2023/01/19 01:16:34;;;;;;;9.80;5.50;;;-0.40;99.90;;;;;;5057511;28;20036;-36
2023/01/19 01:19:00;;;;;;;3.75;3.45;;;-0.40;99.90;;;;;;5060784;28;20489;-39
2023/01/19 01:21:25;;;;;;;8.40;6.22;;;-0.40;99.90;;;;;;5066435;28;20029;-39
2023/01/19 01:23:51;;;;;;;7.60;4.22;;;-0.40;99.90;;;;;;5069729;28;20059;-39
2023/01/19 01:26:16;;;;;;;8.65;5.63;;;-0.40;99.90;;;;;;5068591;28;20040;-39
2023/01/19 01:28:42;;;;;;;7.82;5.82;;;-0.40;99.90;;;;;;5076242;28;20041;-39
2023/01/19 01:31:07;;;;;;;7.28;5.28;;;-0.50;99.90;;;;;;5062975;28;20063;-38
2023/01/19 01:33:33;;;;;;;6.90;4.63;;;-0.40;99.90;;;;;;5075569;28;20036;-39
2023/01/19 01:35:59;;;;;;;6.78;4.80;;;-0.40;99.90;;;;;;5071233;28;20032;-36
2023/01/19 01:38:24;;;;;;;8.23;5.68;;;-0.40;99.90;;;;;;5071787;28;20028;-39
2023/01/19 01:40:50;;;;;;;9.60;6.50;;;-0.50;99.90;;;;;;5071547;28;20047;-39
2023/01/19 01:43:17;;;;;;;9.63;5.95;;;-0.50;99.90;;;;;;5070780;28;20511;-40
2023/01/19 01:45:43;;;;;;;9.52;5.78;;;-0.40;99.90;;;;;;5068977;28;20078;-39
2023/01/19 01:48:29;;;;;;;9.57;7.03;;;-0.40;99.90;;;;;;5070383;28;20688;-37
2023/01/19 01:51:23;;;;;;;9.43;5.80;;;-0.40;99.90;;;;;;5068159;28;20097;-39
2023/01/19 01:53:59;;;;;;;6.43;4.43;;;-0.40;99.90;;;;;;5072591;28;20028;-39
2023/01/19 01:56:32;;;;;;;10.30;5.78;;;-0.50;99.90;;;;;;5066969;28;20033;-39
2023/01/19 01:59:01;;;;;;;8.50;5.28;;;-0.40;99.90;;;;;;5071236;28;20034;-37
2023/01/19 02:04:22;;;;;;;8.18;5.55;;;-0.40;99.90;;;;;;5051717;28;20474;-31
2023/01/19 02:15:14;;;;;;;8.07;5.32;;;-0.50;99.90;;;;;;5071318;28;20143;-36
2023/01/19 02:17:40;;;;;;;6.45;4.95;;;-0.50;99.90;;;;;;5067105;28;20037;-33
2023/01/19 02:20:09;;;;;;;5.82;5.18;;;-0.50;99.90;;;;;;5066625;28;20089;-31
2023/01/19 02:22:39;;;;;;;;;;;-0.50;99.90;;;;;;5068536;28;20107;-34
2023/01/19 02:25:06;;;;;;;7.35;5.45;;;-0.50;99.90;;;;;;5069056;28;20513;-32
2023/01/19 02:27:32;;;;;;;9.93;6.28;;;-0.60;99.90;;;;;;5066876;28;20031;-31
2023/01/19 02:30:02;;;;;;;8.20;5.85;;;-0.50;99.90;;;;;;5069524;28;20135;-31
2023/01/19 02:32:28;;;;;;;7.90;5.82;;;-0.60;99.90;;;;;;5064723;28;20115;-33
2023/01/19 02:34:54;;;;;;;8.65;5.45;;;-0.50;99.90;;;;;;5068665;28;20545;-33
2023/01/19 02:37:20;;;;;;;9.00;6.32;;;-0.60;99.90;;;;;;5044700;28;20044;-32
2023/01/19 02:39:56;;;;;;;9.35;5.15;;;-0.60;99.90;;;;;;5065617;28;20117;-32
2023/01/19 02:42:33;;;;;;;9.07;5.13;;;-0.60;99.90;;;;;;5065401;28;20017;-32
2023/01/19 02:44:59;;;;;;;8.80;6.32;;;-0.70;99.90;;;;;;5067926;28;20044;-32
2023/01/19 02:47:25;;;;;;;6.32;4.93;;;-0.60;99.90;;;;;;5069583;28;20035;-32
2023/01/19 02:49:58;;;;;;;9.75;5.60;;;-0.70;99.90;;;;;;5073624;28;20040;-32
2023/01/19 02:52:24;;;;;;;10.48;6.82;;;-0.60;99.90;;;;;;5064108;28;20039;-35
2023/01/19 02:55:18;;;;;;;8.43;5.53;;;-0.70;99.90;;;;;;5070178;28;20401;-32
2023/01/19 02:58:06;;;;;;;7.55;5.20;;;-0.70;99.90;;;;;;5060239;28;20578;-34
2023/01/19 03:00:55;;;;;;;6.07;5.45;;;-0.60;99.90;;;;;;5060987;28;20021;-32
2023/01/19 03:03:45;;;;;;;11.48;5.55;;;-0.60;99.90;;;;;;5063493;28;20032;-32
2023/01/19 03:06:26;;;;;;;10.05;5.47;;;-0.60;99.90;;;;;;5073853;28;20106;-33
2023/01/19 03:09:01;;;;;;;9.30;5.68;;;-0.60;99.90;;;;;;5094018;28;20069;-31
2023/01/19 03:11:35;;;;;;;10.88;5.63;;;-0.60;99.90;;;;;;5089479;28;20472;-33
2023/01/19 03:14:10;;;;;;;10.52;4.85;;;-0.70;99.90;;;;;;5093190;28;20027;-33
2023/01/19 03:16:44;;;;;;;7.22;5.22;;;-0.60;99.90;;;;;;5088107;28;20031;-32
2023/01/19 03:19:35;;;;;;;7.20;5.20;;;-0.70;99.90;;;;;;5095291;28;20026;-34
2023/01/19 03:22:14;;;;;;;8.27;5.60;;;-0.80;99.90;;;;;;5094026;28;20092;-31
2023/01/19 03:24:43;;;;;;;;;;;-0.80;99.90;;;;;;5089804;28;20034;-31
2023/01/19 03:27:22;;;;;;;9.80;6.25;;;-0.80;99.90;;;;;;5085559;28;19931;-31
2023/01/19 03:30:10;;;;;;;6.65;4.72;;;-0.80;99.90;;;;;;5087698;28;20056;-32
2023/01/19 03:32:42;;;;;;;8.43;5.22;;;-0.80;99.90;;;;;;5079959;28;20506;-32
2023/01/19 03:35:13;;;;;;;8.25;5.30;;;-0.90;99.90;;;;;;5088903;28;20108;-32
2023/01/19 03:37:42;;;;;;;8.18;5.50;;;-1.00;99.90;;;;;;5086663;28;20575;-35
2023/01/19 03:40:09;;;;;;;8.75;6.07;;;-1.00;99.90;;;;;;5089922;28;20035;-33
2023/01/19 03:42:36;;;;;;;10.40;5.72;;;-1.10;99.90;;;;;;5083678;28;20421;-31
2023/01/19 03:45:03;;;;;;;5.68;4.95;;;-1.20;99.90;;;;;;5092208;28;20469;-32
2023/01/19 03:47:29;;;;;;;8.68;6.03;;;-1.20;99.90;;;;;;5079988;28;20534;-32
2023/01/19 03:49:56;;;;;;;9.02;5.20;;;-1.30;99.90;;;;;;5087626;28;20040;-35
2023/01/19 03:52:31;;;;;;;11.77;6.10;;;-1.30;99.90;;;;;;5092913;28;20504;-31
2023/01/19 03:54:59;;;;;;;6.28;4.55;;;-1.30;99.90;;;;;;5096067;28;20038;-32
2023/01/19 03:57:25;;;;;;;9.48;5.85;;;-1.50;99.90;;;;;;5088350;28;20119;-32
2023/01/19 03:59:52;;;;;;;6.95;5.18;;;-1.50;99.90;;;;;;5091486;28;20115;-31
2023/01/19 04:02:18;;;;;;;8.88;5.53;;;-1.50;99.90;;;;;;5067752;28;20123;-34
2023/01/19 04:04:43;;;;;;;8.05;4.90;;;-1.60;99.90;;;;;;5087377;28;20115;-34
2023/01/19 04:07:10;;;;;;;7.68;5.32;;;-1.50;99.90;;;;;;5081687;28;20027;-31
2023/01/19 04:09:36;;;;;;;6.97;5.53;;;-1.50;99.90;;;;;;5086362;28;21196;-33
2023/01/19 04:12:02;;;;;;;6.35;4.50;;;-1.50;99.90;;;;;;5092349;28;20058;-32
2023/01/19 04:14:28;;;;;;;6.68;5.10;;;-1.60;99.90;;;;;;5088029;28;20439;-31
2023/01/19 04:16:54;;;;;;;5.85;4.65;;;-1.70;99.90;;;;;;5090270;28;20020;-31
2023/01/19 04:19:19;;;;;;;7.63;4.80;;;-1.90;99.90;;;;;;5081137;28;20028;-34
2023/01/19 04:21:48;;;;;;;7.85;5.18;;;-2.10;99.90;;;;;;5084942;28;20520;-33
2023/01/19 04:24:14;;;;;;;7.45;5.03;;;-2.10;99.90;;;;;;5088345;28;20490;-31
2023/01/19 04:26:39;;;;;;;5.88;4.70;;;-2.10;99.90;;;;;;5091325;28;20051;-32
2023/01/19 04:29:05;;;;;;;6.82;5.22;;;-2.00;99.90;;;;;;5086772;28;20056;-35
2023/01/19 04:31:30;;;;;;;5.35;4.85;;;-2.00;99.90;;;;;;5087631;28;20032;-31
2023/01/19 04:33:56;;;;;;;9.43;5.20;;;-2.00;99.90;;;;;;5092421;28;20412;-32
2023/01/19 04:36:22;;;;;;;5.63;4.90;;;-2.00;99.90;;;;;;5087601;28;20114;-32
2023/01/19 04:38:47;;;;;;;3.92;3.55;;;-2.10;99.90;;;;;;5085490;28;20027;-32
2023/01/19 04:41:13;;;;;;;5.00;4.00;;;-2.20;99.90;;;;;;5088739;28;20043;-32
2023/01/19 04:43:39;;;;;;;11.55;5.63;;;-2.40;99.90;;;;;;5092430;28;20095;-32
2023/01/19 04:46:05;;;;;;;6.43;4.28;;;-2.50;99.90;;;;;;5084181;28;20028;-34
2023/01/19 04:48:31;;;;;;;6.25;4.40;;;-2.50;99.90;;;;;;5086970;28;20457;-31
2023/01/19 04:50:57;;;;;;;5.68;4.03;;;-2.70;99.90;;;;;;5085381;28;20088;-35
2023/01/19 04:53:23;;;;;;;5.97;4.93;;;-2.70;99.90;;;;;;5089702;28;20385;-31
2023/01/19 04:55:52;;;;;;;8.65;4.80;;;-2.80;99.90;;;;;;5086685;28;20482;-31
2023/01/19 04:58:18;;;;;;;10.38;6.88;;;-2.70;99.90;;;;;;5082423;28;20127;-32
2023/01/19 05:00:43;;;;;;;10.02;4.78;;;-2.60;99.90;;;;;;5084693;28;20615;-32
2023/01/19 05:03:09;;;;;;;8.63;5.88;;;-2.60;99.90;;;;;;5084032;28;20480;-35
2023/01/19 05:05:35;;;;;;;5.68;5.07;;;-2.50;99.90;;;;;;5081893;28;20101;-38
2023/01/19 05:08:00;;;;;;;12.48;6.15;;;-2.40;99.90;;;;;;5086778;28;20162;-32
2023/01/19 05:10:26;;;;;;;8.85;4.95;;;-2.40;99.90;;;;;;5085377;28;20489;-31
2023/01/19 05:12:51;;;;;;;6.03;4.82;;;-2.40;99.90;;;;;;5080472;28;20028;-32
2023/01/19 05:15:17;;;;;;;6.95;5.43;;;-2.30;99.90;;;;;;5090993;28;20043;-32
2023/01/19 05:17:43;;;;;;;6.07;4.90;;;-2.30;99.90;;;;;;5080890;28;20063;-34
2023/01/19 05:20:10;;;;;;;9.05;5.05;;;-2.30;99.90;;;;;;5089393;28;20054;-32
2023/01/19 05:22:37;;;;;;;5.50;4.00;;;-2.40;99.90;;;;;;5088108;28;20106;-32
2023/01/19 05:25:03;;;;;;;6.35;4.80;;;-2.60;99.90;;;;;;5089838;28;20132;-32
2023/01/19 05:27:28;;;;;;;5.55;4.55;;;-2.80;99.90;;;;;;5085538;28;20089;-33
2023/01/19 05:29:54;;;;;;;5.13;4.35;;;-2.90;99.90;;;;;;5091799;28;20032;-31
2023/01/19 05:32:19;;;;;;;7.97;4.82;;;-3.00;99.90;;;;;;5082860;28;20036;-33
2023/01/19 05:34:46;;;;;;;5.70;5.07;;;-3.00;99.90;;;;;;5090760;28;20035;-32
2023/01/19 05:37:11;;;;;;;7.90;5.13;;;-3.00;99.90;;;;;;5084459;28;20024;-31
2023/01/19 05:39:37;;;;;;;9.90;4.15;;;-3.00;99.90;;;;;;5080921;28;20035;-33
2023/01/19 05:42:02;;;;;;;9.05;5.70;;;-2.90;99.90;;;;;;5085045;28;20103;-32
2023/01/19 05:44:28;;;;;;;12.77;6.05;;;-2.90;99.90;;;;;;5090387;28;20496;-32
2023/01/19 05:46:54;;;;;;;5.97;5.47;;;-2.90;99.90;;;;;;5084454;28;20457;-33
2023/01/19 05:49:19;;;;;;;5.00;4.53;;;-3.00;99.90;;;;;;5084648;28;20119;-35
2023/01/19 05:51:45;;;;;;;6.07;4.22;;;-3.00;99.90;;;;;;5082294;28;20031;-33
2023/01/19 05:54:14;;;;;;;8.18;6.57;;;-3.00;99.90;;;;;;5082499;28;20377;-32
2023/01/19 05:56:39;;;;;;;;;;;-3.00;99.90;;;;;;5086652;28;20016;-33
2023/01/19 05:59:05;;;;;;;8.45;4.78;;;-3.00;99.90;;;;;;5087051;28;19923;-37
2023/01/19 06:01:33;;;;;;;8.88;5.43;;;-3.00;99.90;;;;;;5077266;28;20028;-32
2023/01/19 06:03:59;;;;;;;11.32;6.10;;;-3.00;99.90;;;;;;5087146;28;20080;-32
2023/01/19 06:06:24;;;;;;;15.27;5.75;;;-2.90;99.90;;;;;;5080055;28;20028;-35
2023/01/19 06:08:50;;;;;;;6.43;5.25;;;-2.90;99.90;;;;;;5090563;28;20044;-34
2023/01/19 06:11:15;;;;;;;4.15;2.88;;;-2.90;99.90;;;;;;5081537;28;20492;-33
2023/01/19 06:13:41;;;;;;;4.15;3.85;;;-2.90;99.90;;;;;;5084132;28;20034;-34
2023/01/19 06:16:07;;;;;;;7.85;5.80;;;-2.90;99.90;;;;;;5089215;28;20027;-34
2023/01/19 06:18:33;;;;;;;11.38;7.10;;;-2.90;99.90;;;;;;5088928;28;20023;-32
2023/01/19 06:21:06;;;;;;;9.45;7.78;;;-2.90;99.90;;;;;;5081954;28;20442;-33
2023/01/19 06:23:32;;;;;;;9.73;7.57;;;-2.90;99.90;;;;;;5085332;28;20036;-33
2023/01/19 06:25:58;;;;;;;9.00;6.30;;;-3.00;99.90;;;;;;5092833;28;20583;-35
2023/01/19 06:28:24;;;;;;;5.43;4.43;;;-3.00;99.90;;;;;;5091520;28;20091;-34
2023/01/19 06:30:54;;;;;;;6.28;5.47;;;-3.10;99.90;;;;;;5085969;28;20048;-34
2023/01/19 06:33:20;;;;;;;4.07;3.55;;;-3.10;99.90;;;;;;5091933;28;20497;-32
2023/01/19 06:35:47;;;;;;;13.10;5.95;;;-3.20;99.90;;;;;;5073361;28;20541;-32
2023/01/19 06:38:13;;;;;;;5.40;4.30;;;-3.40;99.90;;;;;;5071986;28;20028;-33
2023/01/19 06:40:40;;;;;;;6.78;5.35;;;-3.40;99.90;;;;;;5092990;28;20541;-35
2023/01/19 06:43:06;;;;;;;7.13;5.95;;;-3.40;99.90;;;;;;5089307;28;20057;-35
2023/01/19 06:45:32;;;;;;;7.25;5.75;;;-3.30;99.90;;;;;;5092366;28;20043;-36
2023/01/19 06:47:58;;;;;;;7.35;5.50;;;-3.30;99.90;;;;;;5096003;28;20038;-34
2023/01/19 06:50:23;;;;;;;9.15;4.93;;;-3.30;99.90;;;;;;5086780;28;20039;-33
2023/01/19 06:52:50;;;;;;;5.95;4.90;;;-3.30;99.90;;;;;;5091963;28;20519;-32
2023/01/19 06:55:16;;;;;;;4.25;3.90;;;-3.20;99.90;;;;;;5093174;28;20055;-32
2023/01/19 06:57:43;;;;;;;11.95;5.78;;;-3.20;99.90;;;;;;5094037;28;20529;-33
2023/01/19 07:00:10;;;;;;;3.10;2.55;;;-3.30;99.90;;;;;;5088939;28;20039;-32
2023/01/19 07:02:39;;;;;;;10.93;5.32;;;-3.50;99.90;;;;;;5090435;28;20032;-34
2023/01/19 07:05:05;;;;;;;;;;;-3.60;99.90;;;;;;5087713;28;20028;-32
2023/01/19 07:07:31;;;;;;;1.88;1.73;;;-3.70;99.90;;;;;;5091960;28;20002;-33
2023/01/19 07:09:57;;;;;;;8.55;5.25;;;-3.70;99.90;;;;;;5081130;28;20174;-32
2023/01/19 07:12:22;;;;;;;7.22;6.53;;;-3.60;99.90;;;;;;5076126;28;20082;-35
2023/01/19 07:14:48;;;;;;;11.18;5.47;;;-3.50;99.90;;;;;;5070984;28;20053;-37
2023/01/19 07:17:14;;;;;;;6.80;4.95;;;-3.50;99.90;;;;;;5065865;28;20028;-37
2023/01/19 07:19:39;;;;;;;8.85;6.18;;;-3.50;99.90;;;;;;5076006;28;20441;-32
2023/01/19 07:22:05;;;;;;;7.50;5.45;;;-3.40;99.90;;;;;;5073528;28;20032;-33
2023/01/19 07:24:32;;;;;;;8.98;5.22;;;-3.40;99.90;;;;;;5082508;28;20028;-32
2023/01/19 07:26:58;;;;;;;5.80;5.18;;;-3.30;99.90;;;;;;5097447;28;20508;-35
2023/01/19 07:29:24;;;;;;;8.35;4.80;;;-3.30;99.90;;;;;;5085250;28;20029;-35
2023/01/19 07:31:53;;;;;;;10.93;5.57;;;-3.30;99.90;;;;;;5094101;28;20036;-33
2023/01/19 07:34:18;;;;;;;;;;;-3.20;99.90;;;;;;5086849;28;20032;-32
2023/01/19 07:36:44;;;;;;;4.55;4.25;;;-3.20;99.90;;;;;;5088434;28;20101;-35
2023/01/19 07:39:10;;;;;;;8.60;6.50;;;-3.10;99.90;;;;;;5089363;28;20032;-32
2023/01/19 07:41:35;;;;;;;5.25;4.75;;;-3.20;99.90;;;;;;5095064;28;20114;-36
2023/01/19 07:44:01;;;;;;;6.30;5.05;;;-3.20;99.90;;;;;;5098434;28;20469;-33
2023/01/19 07:46:26;;;;;;;8.55;6.07;;;-3.20;99.90;;;;;;5089914;28;20498;-33
2023/01/19 07:48:52;;;;;;;22.52;7.90;;;-3.20;99.90;;;;;;5085331;28;20031;-34
2023/01/19 07:51:18;;;;;;;7.82;6.63;;;-3.20;99.90;;;;;;5086989;28;20034;-34
2023/01/19 07:53:44;;;;;;;10.73;6.00;;;-3.20;99.90;;;;;;5087219;28;20089;-34
2023/01/19 07:56:11;;;;;;;8.57;6.60;;;-3.20;99.90;;;;;;5064139;28;20019;-32
2023/01/19 07:58:37;;;;;;;8.80;7.10;;;-3.20;99.90;;;;;;5088708;28;20129;-34
2023/01/19 08:01:11;;;;;;;7.93;5.70;;;-3.10;99.90;;;;;;5094883;28;20378;-32
2023/01/19 08:03:37;;;;;;;8.68;5.57;;;-3.10;99.90;;;;;;5092812;28;20022;-39
2023/01/19 08:06:04;;;;;;;6.47;4.65;;;-3.20;99.90;;;;;;5093307;28;20056;-32
2023/01/19 08:08:31;;;;;;;9.15;6.68;;;-3.20;99.90;;;;;;5090633;28;20036;-34
2023/01/19 08:10:56;;;;;;;7.38;5.32;;;-3.20;99.90;;;;;;5068241;28;20032;-34
2023/01/19 08:13:22;;;;;;;7.43;5.38;;;-3.30;99.90;;;;;;5082686;28;20030;-39
2023/01/19 08:15:49;;;;;;;5.53;4.03;;;-3.40;99.90;;;;;;5077870;28;20043;-36
2023/01/19 08:18:15;;;;;;;7.38;5.05;;;-3.40;99.90;;;;;;5092034;28;20063;-35
2023/01/19 08:20:41;;;;;;;4.15;3.85;;;-3.40;99.90;;;;;;5088930;28;20059;-39
2023/01/19 08:23:06;;;;;;;6.65;5.68;;;-3.50;99.90;;;;;;5090740;28;20396;-35
2023/01/19 08:25:33;;;;;;;7.03;4.57;;;-3.40;99.90;;;;;;5086531;28;20044;-33
2023/01/19 08:27:59;;;;;;;4.13;3.80;;;-3.40;99.90;;;;;;5096386;28;20127;-32
2023/01/19 08:30:25;;;;;;;6.40;5.93;;;-3.40;99.90;;;;;;5092541;28;20517;-32
2023/01/19 08:32:53;;;;;;;2.72;1.90;;;-3.30;99.90;;;;;;5092291;28;20062;-31
2023/01/19 08:35:19;;;;;;;4.57;3.90;;;-3.40;99.90;;;;;;5090473;28;20126;-34
2023/01/19 08:37:45;;;;;;;4.60;3.92;;;-3.40;99.90;;;;;;5092285;28;20074;-35
2023/01/19 08:40:11;;;;;;;7.05;5.32;;;-3.30;99.90;;;;;;5093091;28;20028;-31
2023/01/19 08:42:36;;;;;;;7.95;5.90;;;-3.30;99.90;;;;;;5086274;28;20380;-32
2023/01/19 08:45:02;;;;;;;9.25;6.45;;;-3.20;99.90;;;;;;5092339;28;20123;-33
2023/01/19 08:47:28;;;;;;;8.38;6.13;;;-3.20;99.90;;;;;;5085348;28;20035;-38
2023/01/19 08:49:54;;;;;;;5.97;5.05;;;-3.10;99.90;;;;;;5093235;28;20028;-32
2023/01/19 08:52:20;;;;;;;9.95;6.93;;;-3.00;99.90;;;;;;5084540;28;20032;-34
2023/01/19 08:54:45;;;;;;;8.07;4.82;;;-2.90;99.90;;;;;;5097296;28;20038;-36
2023/01/19 08:57:11;;;;;;;4.55;4.15;;;-2.80;99.90;;;;;;5068261;28;20501;-31
2023/01/19 08:59:37;;;;;;;4.95;2.33;;;-2.70;99.90;;;;;;5085910;28;20031;-45
2023/01/19 09:02:03;;;;;;;4.15;2.85;;;-2.60;99.90;;;;;;5085590;28;20036;-35
2023/01/19 09:04:33;;;;;;;10.35;3.60;;;-2.40;99.90;;;;;;5095201;28;20393;-37
2023/01/19 09:06:58;;;;;;;4.28;3.90;;;-2.30;99.90;;;;;;5092690;28;20135;-35
2023/01/19 09:09:24;;;;;;;7.80;5.47;;;-2.20;99.90;;;;;;5092780;28;20126;-34
2023/01/19 09:11:49;;;;;;;7.15;5.28;;;-2.20;99.90;;;;;;5090384;28;20077;-31
2023/01/19 09:14:15;;;;;;;1.90;1.80;;;-2.10;99.90;;;;;;5087007;28;20032;-31
2023/01/19 09:16:41;;;;;;;3.35;3.10;;;-2.00;99.90;;;;;;5094525;28;20027;-36
2023/01/19 09:19:07;;;;;;;5.47;5.00;;;-1.90;99.90;;;;;;5093500;28;20016;-32
2023/01/19 09:21:33;;;;;;;6.00;4.70;;;-1.90;99.90;;;;;;5089616;28;20085;-32
2023/01/19 09:23:58;;;;;;;6.00;5.22;;;-1.80;99.90;;;;;;5089495;28;20032;-36
2023/01/19 09:26:24;;;;;;;8.93;6.10;;;-1.70;99.90;;;;;;5082473;28;20024;-31
2023/01/19 09:28:50;;;;;;;5.78;4.32;;;-1.60;99.90;;;;;;5087644;28;20028;-33
2023/01/19 09:31:16;;;;;;;9.40;5.68;;;-1.60;99.90;;;;;;5089924;28;20493;-32
2023/01/19 09:33:41;;;;;;;4.47;3.70;;;-1.50;99.90;;;;;;5083191;28;20036;-33
2023/01/19 09:36:10;;;;;;;10.98;7.18;;;-1.50;99.90;;;;;;5085666;28;20401;-34
2023/01/19 09:38:37;;;;;;;;;;;-1.40;99.90;;;;;;5089030;28;20055;-33
2023/01/19 09:41:03;;;;;;;6.80;4.95;;;-1.30;99.90;;;;;;5084822;28;19947;-34
2023/01/19 09:43:40;;;;;;;4.80;3.30;;;-1.30;99.90;;;;;;5094217;28;20080;-32
2023/01/19 09:46:32;;;;;;;3.50;3.17;;;-1.20;99.90;;;;;;5084779;28;20381;-32
2023/01/19 09:49:03;;;;;;;3.95;3.20;;;-1.20;99.90;;;;;;5094661;28;20555;-32
2023/01/19 09:51:35;;;;;;;3.17;3.00;;;-1.10;99.90;;;;;;5087282;28;20515;-34
2023/01/19 09:54:14;;;;;;;6.28;5.20;;;-1.10;99.90;;;;;;5083111;28;20118;-32
2023/01/19 09:56:44;;;;;;;11.32;4.40;;;-1.00;99.90;;;;;;5081833;28;20437;-31
2023/01/19 09:59:37;;;;;;;7.55;4.93;;;-1.00;99.90;;;;;;5090590;28;20035;-32
2023/01/19 10:02:21;;;;;;;5.20;3.30;;;-0.80;99.90;;;;;;5092426;28;20044;-34
2023/01/19 10:04:49;;;;;;;6.00;4.22;;;-0.90;99.90;;;;;;5088381;28;20031;-32
2023/01/19 10:07:21;;;;;;;9.15;5.05;;;-0.90;99.90;;;;;;5091532;28;20051;-32
2023/01/19 10:09:46;;;;;;;7.43;3.90;;;-0.80;99.90;;;;;;5093232;28;20035;-31
2023/01/19 10:12:55;;;;;;;5.65;3.22;;;-0.80;99.90;;;;;;5087804;28;20501;-31
2023/01/19 10:15:23;;;;;;;;;;;-0.70;99.90;;;;;;5031444;28;20045;-33
2023/01/19 10:18:34;;;;;;;7.72;3.63;;;-0.60;99.90;;;;;;5084638;28;19917;-32
2023/01/19 10:21:03;;;;;;;8.55;4.97;;;-0.60;99.90;;;;;;5084815;28;20393;-32
2023/01/19 10:23:33;;;;;;;6.70;5.82;;;-0.60;99.90;;;;;;5088945;28;20111;-35
2023/01/19 10:26:14;;;;;;;5.53;4.10;;;-0.60;99.90;;;;;;5086496;28;20090;-32
2023/01/19 10:28:40;;;;;;;6.18;4.85;;;-0.60;99.90;;;;;;5098103;28;20039;-33
2023/01/19 10:31:08;;;;;;;8.15;4.50;;;-0.50;99.90;;;;;;5085398;28;20043;-34
2023/01/19 10:33:35;;;;;;;7.22;5.78;;;-0.30;99.90;;;;;;5085856;28;20059;-32
2023/01/19 10:36:20;;;;;;;9.60;3.25;;;-0.10;99.90;;;;;;5090837;28;20035;-31
2023/01/19 10:38:46;;;;;;;2.92;2.65;;;0.00;99.90;;;;;;5084909;28;20181;-34
2023/01/19 10:41:26;;;;;;;7.72;5.90;;;0.00;99.90;;;;;;5096214;28;20031;-31
2023/01/19 10:44:00;;;;;;;4.35;3.72;;;0.00;99.90;;;;;;5097125;28;20381;-33
2023/01/19 10:46:36;;;;;;;3.08;2.88;;;0.00;99.90;;;;;;5094398;28;20024;-32
2023/01/19 10:49:02;;;;;;;6.88;4.30;;;0.00;99.90;;;;;;5087460;28;20020;-32
2023/01/19 10:51:27;;;;;;;4.65;3.70;;;0.10;99.90;;;;;;5095283;28;20057;-31
2023/01/19 10:53:59;;;;;;;5.90;3.80;;;0.00;99.90;;;;;;5083120;28;20024;-33
2023/01/19 10:56:34;;;;;;;3.83;3.30;;;0.00;99.90;;;;;;5087010;28;20039;-31
2023/01/19 10:59:02;;;;;;;5.85;4.15;;;0.00;99.90;;;;;;5098051;28;20397;-32
2023/01/19 11:01:29;;;;;;;3.08;2.88;;;0.00;99.90;;;;;;5094006;28;20036;-31
2023/01/19 11:04:04;;;;;;;7.32;4.57;;;0.10;99.90;;;;;;5091284;28;20489;-31
2023/01/19 11:06:31;;;;;;;9.00;4.70;;;0.10;99.90;;;;;;5073166;28;20429;-33
2023/01/19 11:09:20;;;;;;;3.92;3.50;;;0.10;99.90;;;;;;5091670;28;20048;-31
2023/01/19 11:11:50;;;;;;;4.18;3.72;;;0.10;99.90;;;;;;5076769;28;20035;-31
2023/01/19 11:14:22;;;;;;;7.05;4.57;;;0.20;99.90;;;;;;5087486;28;20032;-31
2023/01/19 11:16:56;;;;;;;8.27;3.78;;;0.20;99.90;;;;;;5093399;28;20036;-32
2023/01/19 11:19:31;;;;;;;2.97;2.85;;;0.30;99.90;;;;;;5094936;28;20070;-31
2023/01/19 11:22:13;;;;;;;3.50;3.20;;;0.40;99.90;;;;;;5091292;28;20036;-32
2023/01/19 11:24:39;;;;;;;2.80;2.60;;;0.40;99.90;;;;;;5092338;28;20032;-32
2023/01/19 11:27:05;;;;;;;5.60;3.92;;;0.40;99.90;;;;;;5094877;28;20032;-31
2023/01/19 11:29:31;;;;;;;5.93;4.43;;;0.40;99.90;;;;;;5089209;28;20533;-31
2023/01/19 11:32:10;;;;;;;5.50;2.85;;;0.40;99.90;;;;;;5091841;28;20032;-33
2023/01/19 11:34:38;;;;;;;4.07;2.75;;;0.40;99.90;;;;;;5092371;28;20496;-32
2023/01/19 11:37:17;;;;;;;6.73;2.83;;;0.40;99.90;;;;;;5070329;28;20496;-32
2023/01/19 11:39:48;;;;;;;2.80;2.58;;;0.50;99.90;;;;;;5093675;28;20039;-33
2023/01/19 11:42:14;;;;;;;2.80;2.55;;;0.40;99.90;;;;;;5086652;28;20031;-30
2023/01/19 11:45:02;;;;;;;4.93;3.80;;;0.50;99.90;;;;;;5095397;28;20028;-33
2023/01/19 11:47:44;;;;;;;3.17;2.50;;;0.50;99.90;;;;;;5067003;28;20094;-33
2023/01/19 11:50:22;;;;;;;6.53;3.75;;;0.50;99.90;;;;;;5093906;28;20031;-32
2023/01/19 11:53:06;;;;;;;2.35;2.05;;;0.60;99.90;;;;;;5095834;28;20084;-31
2023/01/19 11:55:50;;;;;;;1.90;1.48;;;0.50;99.90;;;;;;5073163;28;20644;-31
2023/01/19 11:58:17;;;;;;;5.63;3.42;;;0.50;99.90;;;;;;5087043;28;20024;-32
2023/01/19 12:00:48;;;;;;;4.05;3.58;;;0.50;99.90;;;;;;5090643;28;20040;-36
2023/01/19 12:03:34;;;;;;;5.53;3.90;;;0.50;99.90;;;;;;5089975;28;20022;-32
2023/01/19 12:06:30;;;;;;;6.25;4.90;;;0.60;99.90;;;;;;5091832;28;20039;-34
2023/01/19 12:09:03;;;;;;;6.55;3.35;;;0.60;99.90;;;;;;5088098;28;20516;-32
2023/01/19 12:11:34;;;;;;;5.25;3.78;;;0.60;99.90;;;;;;5090771;28;20059;-31
2023/01/19 12:14:01;;;;;;;3.17;2.53;;;0.60;99.90;;;;;;5087192;28;20101;-33
2023/01/19 12:16:33;;;;;;;3.72;3.08;;;0.60;99.90;;;;;;5091571;28;20585;-32
2023/01/19 12:19:04;;;;;;;6.68;3.25;;;0.60;99.90;;;;;;5088750;28;20039;-31
2023/01/19 12:21:29;;;;;;;3.03;2.72;;;0.60;99.90;;;;;;5091037;28;20593;-35
2023/01/19 12:24:15;;;;;;;1.58;1.48;;;0.50;99.90;;;;;;5088489;28;20067;-32
2023/01/19 12:26:59;;;;;;;2.63;2.40;;;0.50;99.90;;;;;;5088643;28;20050;-32
2023/01/19 12:29:30;;;;;;;3.35;3.05;;;0.60;99.90;;;;;;5083378;28;20040;-35
2023/01/19 12:32:15;;;;;;;4.32;2.83;;;0.60;99.90;;;;;;5092247;28;20075;-31
2023/01/19 12:34:48;;;;;;;2.47;2.28;;;0.60;99.90;;;;;;5091140;28;20515;-33
2023/01/19 12:37:35;;;;;;;4.72;2.65;;;0.70;99.90;;;;;;5093791;28;20027;-34
2023/01/19 12:40:20;;;;;;;3.33;2.63;;;0.70;99.90;;;;;;5084817;28;20267;-33
2023/01/19 12:43:10;;;;;;;3.88;2.85;;;0.70;99.90;;;;;;5089734;28;20032;-36
2023/01/19 12:45:38;;;;;;;2.65;2.28;;;0.80;99.90;;;;;;5081660;28;20028;-32
2023/01/19 12:48:07;;;;;;;2.42;2.22;;;0.80;99.90;;;;;;5087834;28;20040;-34
2023/01/19 12:50:37;;;;;;;4.32;3.15;;;0.80;99.90;;;;;;5081039;28;20405;-34
2023/01/19 12:53:14;;;;;;;4.43;2.88;;;0.90;99.90;;;;;;5084767;28;20020;-36
2023/01/19 12:55:45;;;;;;;3.88;2.97;;;0.90;99.90;;;;;;5087995;28;20033;-38
2023/01/19 12:58:17;;;;;;;3.95;3.17;;;0.90;99.90;;;;;;5091242;28;20513;-38
2023/01/19 13:00:45;;;;;;;3.42;2.78;;;0.90;99.90;;;;;;5091582;28;20032;-33
2023/01/19 13:03:17;;;;;;;2.53;2.13;;;0.90;99.90;;;;;;5088774;28;20077;-31
2023/01/19 13:05:42;;;;;;;3.17;2.88;;;1.00;99.90;;;;;;5072010;28;20024;-37
2023/01/19 13:08:08;;;;;;;3.90;2.30;;;1.00;99.90;;;;;;5065937;28;20071;-34
2023/01/19 13:10:58;;;;;;;5.05;2.40;;;1.00;99.90;;;;;;5083900;28;20038;-31
2023/01/19 13:13:29;;;;;;;2.25;2.03;;;1.00;99.90;;;;;;5079662;28;20045;-33
2023/01/19 13:16:01;;;;;;;2.97;2.25;;;0.90;99.90;;;;;;5086593;28;20467;-31